sensor_id;sensor_type;location;lat;lon;timestamp;P1;durP1;ratioP1;P2;durP2;ratioP2
10699;SDS011;5401;41.986;21.452;2022-07-10T00:01:43;18.20;;;12.27;;
10699;SDS011;5401;41.986;21.452;2022-07-10T00:04:15;14.75;;;11.30;;
10699;SDS011;5401;41.986;21.452;2022-07-10T00:06:46;14.87;;;11.50;;
10699;SDS011;5401;41.986;21.452;2022-07-10T00:09:13;13.03;;;10.60;;
10699;SDS011;5401;41.986;21.452;2022-07-10T00:11:42;15.00;;;12.07;;
10699;SDS011;5401;41.986;21.452;2022-07-10T00:14:10;14.27;;;12.33;;
10699;SDS011;5401;41.986;21.452;2022-07-10T00:16:37;16.83;;;12.70;;
10699;SDS011;5401;41.986;21.452;2022-07-10T00:19:05;11.17;;;10.03;;
10699;SDS011;5401;41.986;21.452;2022-07-10T00:21:33;12.47;;;11.17;;
10699;SDS011;5401;41.986;21.452;2022-07-10T00:24:02;12.07;;;10.77;;
10699;SDS011;5401;41.986;21.452;2022-07-10T00:26:30;14.00;;;11.97;;
10699;SDS011;5401;41.986;21.452;2022-07-10T00:28:58;13.87;;;9.40;;
10699;SDS011;5401;41.986;21.452;2022-07-10T00:31:26;10.73;;;9.63;;
10699;SDS011;5401;41.986;21.452;2022-07-10T00:33:53;14.37;;;11.23;;
10699;SDS011;5401;41.986;21.452;2022-07-10T00:36:21;10.97;;;9.47;;
10699;SDS011;5401;41.986;21.452;2022-07-10T00:38:48;13.97;;;11.07;;
10699;SDS011;5401;41.986;21.452;2022-07-10T00:41:18;15.37;;;12.00;;
10699;SDS011;5401;41.986;21.452;2022-07-10T00:43:52;11.30;;;9.47;;
10699;SDS011;5401;41.986;21.452;2022-07-10T00:46:20;13.07;;;10.73;;
10699;SDS011;5401;41.986;21.452;2022-07-10T00:48:48;17.80;;;11.43;;
10699;SDS011;5401;41.986;21.452;2022-07-10T00:51:17;17.33;;;11.47;;
10699;SDS011;5401;41.986;21.452;2022-07-10T00:53:46;17.00;;;12.17;;
10699;SDS011;5401;41.986;21.452;2022-07-10T00:56:15;15.07;;;11.43;;
10699;SDS011;5401;41.986;21.452;2022-07-10T00:58:45;15.70;;;10.13;;
10699;SDS011;5401;41.986;21.452;2022-07-10T01:01:14;14.50;;;10.83;;
10699;SDS011;5401;41.986;21.452;2022-07-10T01:03:42;19.80;;;12.03;;
10699;SDS011;5401;41.986;21.452;2022-07-10T01:06:11;13.27;;;11.90;;
10699;SDS011;5401;41.986;21.452;2022-07-10T01:08:39;16.90;;;11.70;;
10699;SDS011;5401;41.986;21.452;2022-07-10T01:11:07;14.37;;;11.60;;
10699;SDS011;5401;41.986;21.452;2022-07-10T01:13:35;14.33;;;10.87;;
10699;SDS011;5401;41.986;21.452;2022-07-10T01:16:05;14.57;;;11.60;;
10699;SDS011;5401;41.986;21.452;2022-07-10T01:18:33;14.23;;;11.37;;
10699;SDS011;5401;41.986;21.452;2022-07-10T01:21:02;12.20;;;10.90;;
10699;SDS011;5401;41.986;21.452;2022-07-10T01:23:30;15.73;;;9.50;;
10699;SDS011;5401;41.986;21.452;2022-07-10T01:25:58;11.63;;;8.27;;
10699;SDS011;5401;41.986;21.452;2022-07-10T01:28:28;12.33;;;9.53;;
10699;SDS011;5401;41.986;21.452;2022-07-10T01:30:57;17.50;;;11.50;;
10699;SDS011;5401;41.986;21.452;2022-07-10T01:33:28;15.37;;;9.13;;
10699;SDS011;5401;41.986;21.452;2022-07-10T01:35:56;14.33;;;11.03;;
10699;SDS011;5401;41.986;21.452;2022-07-10T01:38:26;15.53;;;11.50;;
10699;SDS011;5401;41.986;21.452;2022-07-10T01:40:54;13.80;;;10.40;;
10699;SDS011;5401;41.986;21.452;2022-07-10T01:43:22;13.30;;;10.17;;
10699;SDS011;5401;41.986;21.452;2022-07-10T01:45:50;15.63;;;10.90;;
10699;SDS011;5401;41.986;21.452;2022-07-10T01:48:17;12.00;;;10.83;;
10699;SDS011;5401;41.986;21.452;2022-07-10T01:50:45;12.37;;;11.13;;
10699;SDS011;5401;41.986;21.452;2022-07-10T01:53:13;11.87;;;10.70;;
10699;SDS011;5401;41.986;21.452;2022-07-10T01:55:42;14.67;;;11.67;;
10699;SDS011;5401;41.986;21.452;2022-07-10T01:58:09;12.63;;;10.90;;
10699;SDS011;5401;41.986;21.452;2022-07-10T02:00:37;12.93;;;11.40;;
10699;SDS011;5401;41.986;21.452;2022-07-10T02:03:05;13.43;;;10.67;;
10699;SDS011;5401;41.986;21.452;2022-07-10T02:05:50;12.03;;;10.83;;
10699;SDS011;5401;41.986;21.452;2022-07-10T02:08:18;12.37;;;10.83;;
10699;SDS011;5401;41.986;21.452;2022-07-10T02:10:47;10.47;;;8.33;;
10699;SDS011;5401;41.986;21.452;2022-07-10T02:13:15;9.87;;;7.33;;
10699;SDS011;5401;41.986;21.452;2022-07-10T02:15:46;11.93;;;8.03;;
10699;SDS011;5401;41.986;21.452;2022-07-10T02:18:13;8.13;;;6.03;;
10699;SDS011;5401;41.986;21.452;2022-07-10T02:20:41;7.37;;;5.40;;
10699;SDS011;5401;41.986;21.452;2022-07-10T02:23:08;6.07;;;5.27;;
10699;SDS011;5401;41.986;21.452;2022-07-10T02:25:36;8.23;;;4.50;;
10699;SDS011;5401;41.986;21.452;2022-07-10T02:28:05;9.70;;;4.90;;
10699;SDS011;5401;41.986;21.452;2022-07-10T02:30:34;7.60;;;4.40;;
10699;SDS011;5401;41.986;21.452;2022-07-10T02:33:02;7.73;;;4.17;;
10699;SDS011;5401;41.986;21.452;2022-07-10T02:35:30;4.27;;;3.23;;
10699;SDS011;5401;41.986;21.452;2022-07-10T02:37:58;5.17;;;3.67;;
10699;SDS011;5401;41.986;21.452;2022-07-10T02:40:26;9.60;;;4.00;;
10699;SDS011;5401;41.986;21.452;2022-07-10T02:42:53;9.60;;;3.50;;
10699;SDS011;5401;41.986;21.452;2022-07-10T02:45:22;4.70;;;3.77;;
10699;SDS011;5401;41.986;21.452;2022-07-10T02:47:50;10.93;;;4.10;;
10699;SDS011;5401;41.986;21.452;2022-07-10T02:50:19;10.00;;;3.90;;
10699;SDS011;5401;41.986;21.452;2022-07-10T02:52:47;6.83;;;4.20;;
10699;SDS011;5401;41.986;21.452;2022-07-10T02:55:15;9.50;;;3.80;;
10699;SDS011;5401;41.986;21.452;2022-07-10T02:57:43;4.67;;;3.50;;
10699;SDS011;5401;41.986;21.452;2022-07-10T03:00:11;4.20;;;3.47;;
10699;SDS011;5401;41.986;21.452;2022-07-10T03:02:40;3.87;;;3.53;;
10699;SDS011;5401;41.986;21.452;2022-07-10T03:05:08;7.30;;;4.37;;
10699;SDS011;5401;41.986;21.452;2022-07-10T03:07:36;7.07;;;4.47;;
10699;SDS011;5401;41.986;21.452;2022-07-10T03:10:04;7.63;;;3.97;;
10699;SDS011;5401;41.986;21.452;2022-07-10T03:12:32;8.67;;;3.80;;
10699;SDS011;5401;41.986;21.452;2022-07-10T03:14:59;5.67;;;3.47;;
10699;SDS011;5401;41.986;21.452;2022-07-10T03:17:27;4.27;;;3.37;;
10699;SDS011;5401;41.986;21.452;2022-07-10T03:19:56;6.50;;;3.70;;
10699;SDS011;5401;41.986;21.452;2022-07-10T03:22:24;6.13;;;3.37;;
10699;SDS011;5401;41.986;21.452;2022-07-10T03:24:51;6.80;;;5.17;;
10699;SDS011;5401;41.986;21.452;2022-07-10T03:27:19;10.70;;;5.17;;
10699;SDS011;5401;41.986;21.452;2022-07-10T03:29:46;10.77;;;6.30;;
10699;SDS011;5401;41.986;21.452;2022-07-10T03:32:14;7.37;;;5.70;;
10699;SDS011;5401;41.986;21.452;2022-07-10T03:34:42;10.77;;;6.57;;
10699;SDS011;5401;41.986;21.452;2022-07-10T03:37:11;14.50;;;5.80;;
10699;SDS011;5401;41.986;21.452;2022-07-10T03:39:38;8.17;;;6.40;;
10699;SDS011;5401;41.986;21.452;2022-07-10T03:42:06;11.07;;;7.03;;
10699;SDS011;5401;41.986;21.452;2022-07-10T03:44:34;12.60;;;5.90;;
10699;SDS011;5401;41.986;21.452;2022-07-10T03:47:01;9.33;;;6.73;;
10699;SDS011;5401;41.986;21.452;2022-07-10T03:49:29;11.60;;;6.47;;
10699;SDS011;5401;41.986;21.452;2022-07-10T03:51:58;9.57;;;6.13;;
10699;SDS011;5401;41.986;21.452;2022-07-10T03:54:28;10.83;;;5.50;;
10699;SDS011;5401;41.986;21.452;2022-07-10T03:56:56;8.90;;;5.53;;
10699;SDS011;5401;41.986;21.452;2022-07-10T03:59:41;7.33;;;4.53;;
10699;SDS011;5401;41.986;21.452;2022-07-10T04:02:09;11.40;;;5.10;;
10699;SDS011;5401;41.986;21.452;2022-07-10T04:04:37;7.47;;;5.03;;
10699;SDS011;5401;41.986;21.452;2022-07-10T04:07:05;8.17;;;4.90;;
10699;SDS011;5401;41.986;21.452;2022-07-10T04:09:34;8.93;;;4.70;;
10699;SDS011;5401;41.986;21.452;2022-07-10T04:12:02;9.40;;;4.93;;
10699;SDS011;5401;41.986;21.452;2022-07-10T04:14:30;7.83;;;3.93;;
10699;SDS011;5401;41.986;21.452;2022-07-10T04:16:57;6.17;;;4.10;;
10699;SDS011;5401;41.986;21.452;2022-07-10T04:19:25;5.43;;;2.97;;
10699;SDS011;5401;41.986;21.452;2022-07-10T04:21:52;5.40;;;2.30;;
10699;SDS011;5401;41.986;21.452;2022-07-10T04:24:20;6.83;;;2.47;;
10699;SDS011;5401;41.986;21.452;2022-07-10T04:26:49;5.73;;;2.23;;
10699;SDS011;5401;41.986;21.452;2022-07-10T04:29:22;6.47;;;2.40;;
10699;SDS011;5401;41.986;21.452;2022-07-10T04:31:49;2.47;;;1.87;;
10699;SDS011;5401;41.986;21.452;2022-07-10T04:34:17;3.00;;;1.90;;
10699;SDS011;5401;41.986;21.452;2022-07-10T04:36:46;4.67;;;2.50;;
10699;SDS011;5401;41.986;21.452;2022-07-10T04:39:14;5.20;;;2.83;;
10699;SDS011;5401;41.986;21.452;2022-07-10T04:41:42;6.97;;;2.80;;
10699;SDS011;5401;41.986;21.452;2022-07-10T04:44:12;6.00;;;2.53;;
10699;SDS011;5401;41.986;21.452;2022-07-10T04:46:39;3.40;;;2.10;;
10699;SDS011;5401;41.986;21.452;2022-07-10T04:49:07;8.80;;;2.87;;
10699;SDS011;5401;41.986;21.452;2022-07-10T04:51:35;6.80;;;2.30;;
10699;SDS011;5401;41.986;21.452;2022-07-10T04:54:03;4.93;;;2.40;;
10699;SDS011;5401;41.986;21.452;2022-07-10T04:56:30;11.00;;;3.03;;
10699;SDS011;5401;41.986;21.452;2022-07-10T04:58:58;3.37;;;2.13;;
10699;SDS011;5401;41.986;21.452;2022-07-10T05:01:27;7.17;;;2.20;;
10699;SDS011;5401;41.986;21.452;2022-07-10T05:03:55;5.57;;;2.20;;
10699;SDS011;5401;41.986;21.452;2022-07-10T05:06:22;3.80;;;2.30;;
10699;SDS011;5401;41.986;21.452;2022-07-10T05:08:50;3.40;;;2.40;;
10699;SDS011;5401;41.986;21.452;2022-07-10T05:11:19;3.90;;;2.40;;
10699;SDS011;5401;41.986;21.452;2022-07-10T05:13:46;4.40;;;2.20;;
10699;SDS011;5401;41.986;21.452;2022-07-10T05:16:14;9.93;;;2.43;;
10699;SDS011;5401;41.986;21.452;2022-07-10T05:18:44;5.67;;;2.17;;
10699;SDS011;5401;41.986;21.452;2022-07-10T05:21:11;4.10;;;2.13;;
10699;SDS011;5401;41.986;21.452;2022-07-10T05:23:39;3.17;;;2.00;;
10699;SDS011;5401;41.986;21.452;2022-07-10T05:26:07;4.70;;;2.00;;
10699;SDS011;5401;41.986;21.452;2022-07-10T05:28:35;6.03;;;2.10;;
10699;SDS011;5401;41.986;21.452;2022-07-10T05:31:03;3.47;;;1.93;;
10699;SDS011;5401;41.986;21.452;2022-07-10T05:33:30;5.73;;;2.27;;
10699;SDS011;5401;41.986;21.452;2022-07-10T05:35:59;7.13;;;2.10;;
10699;SDS011;5401;41.986;21.452;2022-07-10T05:38:27;10.03;;;2.90;;
10699;SDS011;5401;41.986;21.452;2022-07-10T05:40:55;6.70;;;2.43;;
10699;SDS011;5401;41.986;21.452;2022-07-10T05:43:22;4.57;;;2.00;;
10699;SDS011;5401;41.986;21.452;2022-07-10T05:45:51;6.83;;;2.00;;
10699;SDS011;5401;41.986;21.452;2022-07-10T05:48:18;4.67;;;2.37;;
10699;SDS011;5401;41.986;21.452;2022-07-10T05:50:46;5.23;;;2.53;;
10699;SDS011;5401;41.986;21.452;2022-07-10T05:53:15;6.23;;;2.40;;
10699;SDS011;5401;41.986;21.452;2022-07-10T05:55:45;6.13;;;2.10;;
10699;SDS011;5401;41.986;21.452;2022-07-10T05:58:13;5.67;;;2.20;;
10699;SDS011;5401;41.986;21.452;2022-07-10T06:00:41;6.70;;;2.10;;
10699;SDS011;5401;41.986;21.452;2022-07-10T06:03:11;9.00;;;2.40;;
10699;SDS011;5401;41.986;21.452;2022-07-10T06:05:39;5.33;;;2.03;;
10699;SDS011;5401;41.986;21.452;2022-07-10T06:08:07;2.93;;;1.93;;
10699;SDS011;5401;41.986;21.452;2022-07-10T06:10:36;2.90;;;1.90;;
10699;SDS011;5401;41.986;21.452;2022-07-10T06:13:05;4.60;;;2.10;;
10699;SDS011;5401;41.986;21.452;2022-07-10T06:15:33;3.70;;;2.10;;
10699;SDS011;5401;41.986;21.452;2022-07-10T06:18:00;5.23;;;1.90;;
10699;SDS011;5401;41.986;21.452;2022-07-10T06:20:28;5.97;;;2.10;;
10699;SDS011;5401;41.986;21.452;2022-07-10T06:22:57;5.70;;;2.30;;
10699;SDS011;5401;41.986;21.452;2022-07-10T06:25:24;2.87;;;2.13;;
10699;SDS011;5401;41.986;21.452;2022-07-10T06:27:54;3.73;;;1.97;;
10699;SDS011;5401;41.986;21.452;2022-07-10T06:30:21;4.37;;;2.10;;
10699;SDS011;5401;41.986;21.452;2022-07-10T06:32:50;4.33;;;1.90;;
10699;SDS011;5401;41.986;21.452;2022-07-10T06:35:17;6.83;;;2.30;;
10699;SDS011;5401;41.986;21.452;2022-07-10T06:37:45;4.53;;;1.70;;
10699;SDS011;5401;41.986;21.452;2022-07-10T06:40:13;4.57;;;1.90;;
10699;SDS011;5401;41.986;21.452;2022-07-10T06:42:41;5.37;;;2.17;;
10699;SDS011;5401;41.986;21.452;2022-07-10T06:45:10;12.90;;;2.93;;
10699;SDS011;5401;41.986;21.452;2022-07-10T06:47:38;10.40;;;3.13;;
10699;SDS011;5401;41.986;21.452;2022-07-10T06:50:24;3.27;;;2.20;;
10699;SDS011;5401;41.986;21.452;2022-07-10T06:52:55;4.83;;;2.03;;
10699;SDS011;5401;41.986;21.452;2022-07-10T06:55:23;6.13;;;1.90;;
10699;SDS011;5401;41.986;21.452;2022-07-10T06:57:52;11.23;;;3.30;;
10699;SDS011;5401;41.986;21.452;2022-07-10T07:00:21;3.97;;;2.17;;
10699;SDS011;5401;41.986;21.452;2022-07-10T07:02:49;5.83;;;2.67;;
10699;SDS011;5401;41.986;21.452;2022-07-10T07:05:17;11.37;;;3.57;;
10699;SDS011;5401;41.986;21.452;2022-07-10T07:07:45;6.73;;;2.93;;
10699;SDS011;5401;41.986;21.452;2022-07-10T07:10:12;4.27;;;2.70;;
10699;SDS011;5401;41.986;21.452;2022-07-10T07:12:40;8.40;;;2.83;;
10699;SDS011;5401;41.986;21.452;2022-07-10T07:15:08;4.90;;;2.40;;
10699;SDS011;5401;41.986;21.452;2022-07-10T07:17:40;4.90;;;2.53;;
10699;SDS011;5401;41.986;21.452;2022-07-10T07:20:33;5.30;;;3.27;;
10699;SDS011;5401;41.986;21.452;2022-07-10T07:23:19;8.97;;;2.87;;
10699;SDS011;5401;41.986;21.452;2022-07-10T07:25:47;7.60;;;2.77;;
10699;SDS011;5401;41.986;21.452;2022-07-10T07:28:15;5.83;;;2.40;;
10699;SDS011;5401;41.986;21.452;2022-07-10T07:30:44;6.10;;;2.47;;
10699;SDS011;5401;41.986;21.452;2022-07-10T07:33:15;6.77;;;2.50;;
10699;SDS011;5401;41.986;21.452;2022-07-10T07:35:43;6.33;;;1.73;;
10699;SDS011;5401;41.986;21.452;2022-07-10T07:38:10;8.20;;;2.60;;
10699;SDS011;5401;41.986;21.452;2022-07-10T07:40:38;5.73;;;2.13;;
10699;SDS011;5401;41.986;21.452;2022-07-10T07:43:06;11.90;;;2.23;;
10699;SDS011;5401;41.986;21.452;2022-07-10T07:45:33;4.90;;;2.07;;
10699;SDS011;5401;41.986;21.452;2022-07-10T07:48:01;3.63;;;1.70;;
10699;SDS011;5401;41.986;21.452;2022-07-10T07:50:32;7.83;;;2.03;;
10699;SDS011;5401;41.986;21.452;2022-07-10T07:53:02;2.70;;;2.03;;
10699;SDS011;5401;41.986;21.452;2022-07-10T07:55:31;4.33;;;2.10;;
10699;SDS011;5401;41.986;21.452;2022-07-10T07:58:00;10.63;;;2.00;;
10699;SDS011;5401;41.986;21.452;2022-07-10T08:00:29;4.87;;;2.30;;
10699;SDS011;5401;41.986;21.452;2022-07-10T08:02:57;4.07;;;1.87;;
10699;SDS011;5401;41.986;21.452;2022-07-10T08:05:26;3.30;;;2.00;;
10699;SDS011;5401;41.986;21.452;2022-07-10T08:07:56;5.23;;;2.03;;
10699;SDS011;5401;41.986;21.452;2022-07-10T08:10:30;8.70;;;2.03;;
10699;SDS011;5401;41.986;21.452;2022-07-10T08:12:58;7.83;;;2.40;;
10699;SDS011;5401;41.986;21.452;2022-07-10T08:15:26;4.40;;;1.70;;
10699;SDS011;5401;41.986;21.452;2022-07-10T08:17:54;3.10;;;1.83;;
10699;SDS011;5401;41.986;21.452;2022-07-10T08:20:24;5.07;;;2.10;;
10699;SDS011;5401;41.986;21.452;2022-07-10T08:22:52;5.20;;;2.00;;
10699;SDS011;5401;41.986;21.452;2022-07-10T08:25:22;5.93;;;2.10;;
10699;SDS011;5401;41.986;21.452;2022-07-10T08:27:50;6.70;;;2.00;;
10699;SDS011;5401;41.986;21.452;2022-07-10T08:30:18;4.33;;;2.10;;
10699;SDS011;5401;41.986;21.452;2022-07-10T08:32:45;3.10;;;1.90;;
10699;SDS011;5401;41.986;21.452;2022-07-10T08:35:13;5.23;;;1.80;;
10699;SDS011;5401;41.986;21.452;2022-07-10T08:37:41;5.53;;;1.53;;
10699;SDS011;5401;41.986;21.452;2022-07-10T08:40:10;4.77;;;2.00;;
10699;SDS011;5401;41.986;21.452;2022-07-10T08:42:40;7.43;;;1.70;;
10699;SDS011;5401;41.986;21.452;2022-07-10T08:45:10;4.00;;;1.90;;
10699;SDS011;5401;41.986;21.452;2022-07-10T08:47:38;5.87;;;2.00;;
10699;SDS011;5401;41.986;21.452;2022-07-10T08:50:07;5.47;;;1.87;;
10699;SDS011;5401;41.986;21.452;2022-07-10T08:52:48;5.70;;;1.90;;
10699;SDS011;5401;41.986;21.452;2022-07-10T08:55:24;3.73;;;1.80;;
10699;SDS011;5401;41.986;21.452;2022-07-10T08:57:55;5.27;;;1.50;;
10699;SDS011;5401;41.986;21.452;2022-07-10T09:00:25;10.10;;;5.83;;
10699;SDS011;5401;41.986;21.452;2022-07-10T09:02:53;6.63;;;3.30;;
10699;SDS011;5401;41.986;21.452;2022-07-10T09:05:22;3.43;;;1.93;;
10699;SDS011;5401;41.986;21.452;2022-07-10T09:07:50;3.30;;;1.70;;
10699;SDS011;5401;41.986;21.452;2022-07-10T09:10:19;4.63;;;1.80;;
10699;SDS011;5401;41.986;21.452;2022-07-10T09:12:49;7.43;;;1.90;;
10699;SDS011;5401;41.986;21.452;2022-07-10T09:15:19;5.53;;;1.80;;
10699;SDS011;5401;41.986;21.452;2022-07-10T09:17:49;4.10;;;1.57;;
10699;SDS011;5401;41.986;21.452;2022-07-10T09:20:25;2.27;;;1.60;;
10699;SDS011;5401;41.986;21.452;2022-07-10T09:22:55;4.47;;;2.33;;
10699;SDS011;5401;41.986;21.452;2022-07-10T09:25:33;2.77;;;1.87;;
10699;SDS011;5401;41.986;21.452;2022-07-10T09:28:00;5.57;;;2.30;;
10699;SDS011;5401;41.986;21.452;2022-07-10T09:30:36;3.70;;;1.90;;
10699;SDS011;5401;41.986;21.452;2022-07-10T09:33:14;3.40;;;1.80;;
10699;SDS011;5401;41.986;21.452;2022-07-10T09:36:00;3.47;;;2.00;;
10699;SDS011;5401;41.986;21.452;2022-07-10T09:38:49;2.73;;;2.03;;
10699;SDS011;5401;41.986;21.452;2022-07-10T09:41:20;3.50;;;1.90;;
10699;SDS011;5401;41.986;21.452;2022-07-10T09:43:50;4.60;;;2.13;;
10699;SDS011;5401;41.986;21.452;2022-07-10T09:46:21;4.30;;;2.10;;
10699;SDS011;5401;41.986;21.452;2022-07-10T09:48:59;8.87;;;2.53;;
10699;SDS011;5401;41.986;21.452;2022-07-10T09:51:29;2.23;;;1.90;;
10699;SDS011;5401;41.986;21.452;2022-07-10T09:54:00;3.23;;;1.87;;
10699;SDS011;5401;41.986;21.452;2022-07-10T09:59:17;2.53;;;2.00;;
10699;SDS011;5401;41.986;21.452;2022-07-10T10:01:48;4.40;;;2.20;;
10699;SDS011;5401;41.986;21.452;2022-07-10T10:04:17;4.70;;;2.20;;
10699;SDS011;5401;41.986;21.452;2022-07-10T10:06:45;4.97;;;2.40;;
10699;SDS011;5401;41.986;21.452;2022-07-10T10:09:19;8.00;;;2.10;;
10699;SDS011;5401;41.986;21.452;2022-07-10T10:11:51;3.13;;;1.70;;
10699;SDS011;5401;41.986;21.452;2022-07-10T10:14:24;4.80;;;2.03;;
10699;SDS011;5401;41.986;21.452;2022-07-10T10:16:55;2.40;;;1.90;;
10699;SDS011;5401;41.986;21.452;2022-07-10T10:19:23;3.83;;;1.63;;
10699;SDS011;5401;41.986;21.452;2022-07-10T10:22:08;3.83;;;1.80;;
10699;SDS011;5401;41.986;21.452;2022-07-10T10:24:36;7.17;;;3.47;;
10699;SDS011;5401;41.986;21.452;2022-07-10T10:27:06;6.63;;;2.07;;
10699;SDS011;5401;41.986;21.452;2022-07-10T10:29:35;5.30;;;1.60;;
10699;SDS011;5401;41.986;21.452;2022-07-10T10:32:06;2.90;;;1.70;;
10699;SDS011;5401;41.986;21.452;2022-07-10T10:34:39;5.20;;;1.70;;
10699;SDS011;5401;41.986;21.452;2022-07-10T10:40:02;7.87;;;1.90;;
10699;SDS011;5401;41.986;21.452;2022-07-10T10:42:31;2.60;;;1.63;;
10699;SDS011;5401;41.986;21.452;2022-07-10T10:48:01;7.87;;;1.90;;
10699;SDS011;5401;41.986;21.452;2022-07-10T10:50:40;4.93;;;1.87;;
10699;SDS011;5401;41.986;21.452;2022-07-10T10:53:13;5.03;;;1.90;;
10699;SDS011;5401;41.986;21.452;2022-07-10T10:58:52;3.07;;;1.80;;
10699;SDS011;5401;41.986;21.452;2022-07-10T11:01:23;4.53;;;1.80;;
10699;SDS011;5401;41.986;21.452;2022-07-10T11:04:15;4.50;;;2.27;;
10699;SDS011;5401;41.986;21.452;2022-07-10T11:06:44;6.63;;;1.70;;
10699;SDS011;5401;41.986;21.452;2022-07-10T11:09:23;1.40;;;1.30;;
10699;SDS011;5401;41.986;21.452;2022-07-10T11:11:58;3.00;;;1.60;;
10699;SDS011;5401;41.986;21.452;2022-07-10T11:14:31;3.47;;;1.77;;
10699;SDS011;5401;41.986;21.452;2022-07-10T11:17:02;7.80;;;1.50;;
10699;SDS011;5401;41.986;21.452;2022-07-10T11:19:34;3.83;;;2.00;;
10699;SDS011;5401;41.986;21.452;2022-07-10T11:22:13;7.67;;;1.80;;
10699;SDS011;5401;41.986;21.452;2022-07-10T11:24:59;4.13;;;1.63;;
10699;SDS011;5401;41.986;21.452;2022-07-10T11:27:35;6.83;;;2.07;;
10699;SDS011;5401;41.986;21.452;2022-07-10T11:30:17;3.10;;;2.03;;
10699;SDS011;5401;41.986;21.452;2022-07-10T11:32:45;4.63;;;1.83;;
10699;SDS011;5401;41.986;21.452;2022-07-10T11:35:15;7.37;;;2.00;;
10699;SDS011;5401;41.986;21.452;2022-07-10T11:37:49;2.83;;;2.40;;
10699;SDS011;5401;41.986;21.452;2022-07-10T11:40:18;4.67;;;1.97;;
10699;SDS011;5401;41.986;21.452;2022-07-10T11:42:47;5.20;;;1.70;;
10699;SDS011;5401;41.986;21.452;2022-07-10T11:45:23;4.70;;;1.93;;
10699;SDS011;5401;41.986;21.452;2022-07-10T11:47:52;4.63;;;2.13;;
10699;SDS011;5401;41.986;21.452;2022-07-10T11:50:21;2.60;;;1.60;;
10699;SDS011;5401;41.986;21.452;2022-07-10T11:52:49;2.07;;;1.43;;
10699;SDS011;5401;41.986;21.452;2022-07-10T11:55:18;3.47;;;1.70;;
10699;SDS011;5401;41.986;21.452;2022-07-10T11:57:47;1.67;;;1.40;;
10699;SDS011;5401;41.986;21.452;2022-07-10T12:00:22;6.73;;;1.73;;
10699;SDS011;5401;41.986;21.452;2022-07-10T12:02:50;4.87;;;1.50;;
10699;SDS011;5401;41.986;21.452;2022-07-10T12:05:33;5.53;;;2.23;;
10699;SDS011;5401;41.986;21.452;2022-07-10T12:08:02;6.17;;;1.20;;
10699;SDS011;5401;41.986;21.452;2022-07-10T12:10:30;2.67;;;1.80;;
10699;SDS011;5401;41.986;21.452;2022-07-10T12:13:05;3.47;;;1.63;;
10699;SDS011;5401;41.986;21.452;2022-07-10T12:15:33;4.30;;;1.70;;
10699;SDS011;5401;41.986;21.452;2022-07-10T12:18:03;3.70;;;1.57;;
10699;SDS011;5401;41.986;21.452;2022-07-10T12:20:33;3.27;;;1.47;;
10699;SDS011;5401;41.986;21.452;2022-07-10T12:23:03;4.37;;;1.60;;
10699;SDS011;5401;41.986;21.452;2022-07-10T12:25:31;3.67;;;1.67;;
10699;SDS011;5401;41.986;21.452;2022-07-10T12:27:59;4.53;;;1.57;;
10699;SDS011;5401;41.986;21.452;2022-07-10T12:30:36;4.87;;;1.47;;
10699;SDS011;5401;41.986;21.452;2022-07-10T12:33:06;6.37;;;1.83;;
10699;SDS011;5401;41.986;21.452;2022-07-10T12:35:46;2.10;;;1.63;;
10699;SDS011;5401;41.986;21.452;2022-07-10T12:38:18;4.83;;;1.20;;
10699;SDS011;5401;41.986;21.452;2022-07-10T12:40:46;4.10;;;1.80;;
10699;SDS011;5401;41.986;21.452;2022-07-10T12:43:23;1.80;;;1.40;;
10699;SDS011;5401;41.986;21.452;2022-07-10T12:46:08;1.80;;;1.60;;
10699;SDS011;5401;41.986;21.452;2022-07-10T12:48:37;3.60;;;1.50;;
10699;SDS011;5401;41.986;21.452;2022-07-10T12:51:21;3.20;;;1.50;;
10699;SDS011;5401;41.986;21.452;2022-07-10T12:53:49;3.97;;;1.90;;
10699;SDS011;5401;41.986;21.452;2022-07-10T12:56:30;2.90;;;1.70;;
10699;SDS011;5401;41.986;21.452;2022-07-10T12:59:00;7.03;;;1.90;;
10699;SDS011;5401;41.986;21.452;2022-07-10T13:01:40;2.37;;;1.70;;
10699;SDS011;5401;41.986;21.452;2022-07-10T13:04:08;2.90;;;1.83;;
10699;SDS011;5401;41.986;21.452;2022-07-10T13:06:38;1.70;;;1.60;;
10699;SDS011;5401;41.986;21.452;2022-07-10T13:09:19;2.10;;;1.70;;
10699;SDS011;5401;41.986;21.452;2022-07-10T13:11:48;4.43;;;1.83;;
10699;SDS011;5401;41.986;21.452;2022-07-10T13:14:16;6.90;;;1.90;;
10699;SDS011;5401;41.986;21.452;2022-07-10T13:16:44;3.07;;;1.60;;
10699;SDS011;5401;41.986;21.452;2022-07-10T13:19:12;3.33;;;1.60;;
10699;SDS011;5401;41.986;21.452;2022-07-10T13:21:41;4.33;;;1.80;;
10699;SDS011;5401;41.986;21.452;2022-07-10T13:24:09;3.20;;;1.90;;
10699;SDS011;5401;41.986;21.452;2022-07-10T13:26:38;1.90;;;1.70;;
10699;SDS011;5401;41.986;21.452;2022-07-10T13:29:05;3.90;;;1.60;;
10699;SDS011;5401;41.986;21.452;2022-07-10T13:31:33;3.50;;;2.27;;
10699;SDS011;5401;41.986;21.452;2022-07-10T13:34:01;4.47;;;1.80;;
10699;SDS011;5401;41.986;21.452;2022-07-10T13:36:28;4.50;;;1.50;;
10699;SDS011;5401;41.986;21.452;2022-07-10T13:38:58;2.83;;;1.87;;
10699;SDS011;5401;41.986;21.452;2022-07-10T13:41:26;4.73;;;2.40;;
10699;SDS011;5401;41.986;21.452;2022-07-10T13:43:54;4.53;;;2.37;;
10699;SDS011;5401;41.986;21.452;2022-07-10T13:46:21;3.57;;;1.73;;
10699;SDS011;5401;41.986;21.452;2022-07-10T13:48:49;7.00;;;1.80;;
10699;SDS011;5401;41.986;21.452;2022-07-10T13:51:17;2.30;;;1.87;;
10699;SDS011;5401;41.986;21.452;2022-07-10T13:53:45;4.23;;;1.90;;
10699;SDS011;5401;41.986;21.452;2022-07-10T13:56:15;4.73;;;1.60;;
10699;SDS011;5401;41.986;21.452;2022-07-10T13:58:42;2.50;;;1.73;;
10699;SDS011;5401;41.986;21.452;2022-07-10T14:01:10;2.33;;;1.60;;
10699;SDS011;5401;41.986;21.452;2022-07-10T14:03:38;5.83;;;2.13;;
10699;SDS011;5401;41.986;21.452;2022-07-10T14:06:06;4.03;;;2.30;;
10699;SDS011;5401;41.986;21.452;2022-07-10T14:08:34;1.60;;;1.50;;
10699;SDS011;5401;41.986;21.452;2022-07-10T14:11:01;8.53;;;1.80;;
10699;SDS011;5401;41.986;21.452;2022-07-10T14:13:31;4.50;;;1.90;;
10699;SDS011;5401;41.986;21.452;2022-07-10T14:15:58;1.70;;;1.40;;
10699;SDS011;5401;41.986;21.452;2022-07-10T14:18:26;3.57;;;1.60;;
10699;SDS011;5401;41.986;21.452;2022-07-10T14:21:05;4.27;;;1.83;;
10699;SDS011;5401;41.986;21.452;2022-07-10T14:23:34;3.73;;;1.90;;
10699;SDS011;5401;41.986;21.452;2022-07-10T14:26:04;6.67;;;2.07;;
10699;SDS011;5401;41.986;21.452;2022-07-10T14:28:33;5.13;;;2.00;;
10699;SDS011;5401;41.986;21.452;2022-07-10T14:31:01;4.43;;;1.87;;
10699;SDS011;5401;41.986;21.452;2022-07-10T14:33:31;2.53;;;1.60;;
10699;SDS011;5401;41.986;21.452;2022-07-10T14:36:00;4.37;;;2.10;;
10699;SDS011;5401;41.986;21.452;2022-07-10T14:38:28;3.93;;;2.23;;
10699;SDS011;5401;41.986;21.452;2022-07-10T14:40:55;2.40;;;2.00;;
10699;SDS011;5401;41.986;21.452;2022-07-10T14:43:23;4.20;;;1.63;;
10699;SDS011;5401;41.986;21.452;2022-07-10T14:45:53;4.07;;;2.00;;
10699;SDS011;5401;41.986;21.452;2022-07-10T14:48:21;5.80;;;1.60;;
10699;SDS011;5401;41.986;21.452;2022-07-10T14:50:48;5.50;;;1.83;;
10699;SDS011;5401;41.986;21.452;2022-07-10T14:53:16;3.27;;;2.00;;
10699;SDS011;5401;41.986;21.452;2022-07-10T14:55:44;9.63;;;2.30;;
10699;SDS011;5401;41.986;21.452;2022-07-10T14:58:11;4.83;;;2.60;;
10699;SDS011;5401;41.986;21.452;2022-07-10T15:00:39;5.60;;;2.30;;
10699;SDS011;5401;41.986;21.452;2022-07-10T15:03:08;2.00;;;1.80;;
10699;SDS011;5401;41.986;21.452;2022-07-10T15:05:36;2.60;;;2.13;;
10699;SDS011;5401;41.986;21.452;2022-07-10T15:08:04;3.20;;;2.60;;
10699;SDS011;5401;41.986;21.452;2022-07-10T15:10:31;8.10;;;2.27;;